Wetterdaten der Wetterstation 52249 Eschweiler

Letzte Wetterlage 19.04.2015 12:32
Wetterdiagramm
Tabellarische Darstellung
Datum Temperatur Windchill Feuchte Luftdruck Windrichtung Windstärke Niederschlag
19.04.2015 12:52 13,1 °C 12,2 °C 62 % 1021,4 hPa 26 2.2 0 l/m²
19.04.2015 12:32 12,0 °C 12,0 °C 67 % 1021,5 hPa 34 1.3 0 l/m²
19.04.2015 12:12 11,7 °C 11,7 °C 64 % 1021,7 hPa 46 1.8 0 l/m²
19.04.2015 11:52 11,1 °C 11,1 °C 69 % 1021,9 hPa 44 1.8 0 l/m²
19.04.2015 11:32 10,3 °C 10,3 °C 73 % 1021,9 hPa 32 1.8 0 l/m²
19.04.2015 11:12 9,7 °C 9,7 °C 76 % 1021,9 hPa 48 1.8 0 l/m²
19.04.2015 10:52 9,3 °C 9,3 °C 75 % 1021,8 hPa 34 0.9 0 l/m²
19.04.2015 10:32 8,4 °C 8,4 °C 83 % 1021,8 hPa 46 0.9 0 l/m²
19.04.2015 10:12 7,9 °C 7,9 °C 81 % 1021,9 hPa 99 0.0 0 l/m²
19.04.2015 09:52 6,8 °C 6,8 °C 86 % 1022,0 hPa 89 0.9 0 l/m²
19.04.2015 09:32 5,7 °C 5,7 °C 90 % 1022,1 hPa 209 0.0 0 l/m²
19.04.2015 09:12 5,2 °C 5,2 °C 93 % 1022,2 hPa 41 0.0 0 l/m²
19.04.2015 08:52 4,8 °C 4,8 °C 93 % 1022,1 hPa 41 0.0 0 l/m²
19.04.2015 08:32 4,3 °C 4,3 °C 93 % 1022,3 hPa 5 0.0 0 l/m²
19.04.2015 08:12 3,7 °C 3,7 °C 95 % 1022,5 hPa 330 0.4 0 l/m²
19.04.2015 07:52 2,2 °C 2,2 °C 95 % 1022,3 hPa 294 0.0 0 l/m²
19.04.2015 07:32 0,8 °C 0,8 °C 93 % 1022,0 hPa 294 0.0 0 l/m²
19.04.2015 07:12 0,7 °C 0,7 °C 92 % 1022,0 hPa 294 0.0 0 l/m²
19.04.2015 06:52 0,9 °C 0,9 °C 92 % 1022,0 hPa 294 0.0 0 l/m²
19.04.2015 06:32 1,1 °C 1,1 °C 91 % 1022,1 hPa 294 0.0 0 l/m²
19.04.2015 06:12 1,3 °C 1,3 °C 90 % 1022,1 hPa 294 0.0 0 l/m²
19.04.2015 05:52 1,7 °C 1,7 °C 90 % 1022,2 hPa 294 0.0 0 l/m²
19.04.2015 05:32 1,9 °C 1,9 °C 89 % 1022,4 hPa 294 0.0 0 l/m²
19.04.2015 05:12 2,2 °C 2,2 °C 90 % 1022,4 hPa 294 0.0 0 l/m²
19.04.2015 04:52 2,3 °C 2,3 °C 90 % 1022,7 hPa 294 0.0 0 l/m²
Neue Wetterwarnung

Neue Niederschlagsmeldung
Neue Meldung
Regen Liveticker
    sehr starker Regen/Gewitter
    starker Regen/Gewitter
    mäßiger bis starker Regen
    mäßiger Regen
    leichter bis mäßiger Regen
    kein Regen